Dalhart, Texas
Current Conditions -  °F | °C
As of 12:53 PM on Monday 20 Oct 2014 (Local Time) from KDHT Reporting Station
Clear Clear  
Wind Chill: 72°   Ceiling: Unl
Heat Index: 72°   Visibility: 10mi
Dew Point: 47°   Wind: 12mph
Humidity: 41%   Direction: 20°NNE
Pressure: 30.16"   Gusts: NA
Location:  36.06°N, 102.52°W
Report Text: KDHT 201753Z AUTO 02010KT 10SM CLR 22/08 A3016 RMK AO2 SLP176 T02220083 10222 20083 58001
Loading
Personal Weather Stations






























Interactive Weather Map
Tropical Storm Tracking
New forecast layout! Learn more

10-Day Weather Forecast

Advertisements
Track Severe Weather on mobile